Time;durP1;ratioP1;P1;durP2;ratioP2;P2;SDS_P1;SDS_P2;PMS_P1;PMS_P2;Temp;Humidity;BMP_temperature;BMP_pressure;BME280_temperature;BME280_humidity;BME280_pressure;Samples;Min_cycle;Max_cycle;Signal;HPM_P1;HPM_P2
2022/03/24 00:00:32;;;;;;;4.95;4.53;;;;;;;6.21;54.73;99736.53;4121950;28;20214;-55
2022/03/24 00:02:34;;;;;;;5.63;5.13;;;;;;;6.15;54.92;99737.31;4123793;28;20669;-56
2022/03/24 00:04:36;;;;;;;7.43;6.72;;;;;;;6.11;55.19;99729.72;4090252;28;20219;-57
2022/03/24 00:06:38;;;;;;;5.82;5.28;;;;;;;6.08;55.21;99730.13;4121769;28;20253;-57
2022/03/24 00:08:40;;;;;;;6.05;5.50;;;;;;;6.07;55.33;99740.16;4122959;28;20634;-56
2022/03/24 00:10:41;;;;;;;6.32;5.75;;;;;;;6.06;55.23;99738.47;4124540;28;20264;-56
2022/03/24 00:12:43;;;;;;;5.78;5.35;;;;;;;6.06;54.95;99733.03;4110071;28;20237;-56
2022/03/24 00:14:45;;;;;;;5.05;4.60;;;;;;;6.03;55.12;99738.00;4124711;28;20260;-56
2022/03/24 00:16:47;;;;;;;5.07;4.60;;;;;;;5.99;55.60;99736.69;4122201;28;20210;-56
2022/03/24 00:18:49;;;;;;;6.07;5.47;;;;;;;5.98;55.66;99735.88;4107528;28;20234;-56
2022/03/24 00:20:51;;;;;;;7.90;6.15;;;;;;;5.94;55.68;99728.25;4106931;28;20929;-56
2022/03/24 00:22:53;;;;;;;6.45;5.75;;;;;;;5.86;55.57;99723.81;4121421;28;20217;-56
2022/03/24 00:24:54;;;;;;;5.90;5.40;;;;;;;5.73;55.69;99720.91;4125093;28;20202;-56
2022/03/24 00:26:56;;;;;;;6.07;5.53;;;;;;;5.70;55.92;99720.44;4106948;28;20313;-56
2022/03/24 00:28:58;;;;;;;6.05;5.47;;;;;;;5.67;55.65;99715.38;4103619;28;20644;-56
2022/03/24 00:31:01;;;;;;;6.65;6.05;;;;;;;5.64;56.07;99715.75;4102923;28;20356;-56
2022/03/24 00:33:03;;;;;;;5.13;4.63;;;;;;;5.60;56.15;99714.44;4104363;28;20222;-56
2022/03/24 00:35:05;;;;;;;7.38;6.68;;;;;;;5.61;56.44;99721.56;4102357;28;20206;-56
2022/03/24 00:37:08;;;;;;;7.65;6.72;;;;;;;5.59;56.40;99726.34;4107824;28;20954;-56
2022/03/24 00:39:09;;;;;;;7.20;5.13;;;;;;;5.60;56.48;99725.31;4105177;28;21145;-55
2022/03/24 00:41:12;;;;;;;6.15;5.43;;;;;;;5.59;56.49;99718.19;4104678;28;20247;-56
2022/03/24 00:43:14;;;;;;;6.40;5.70;;;;;;;5.57;56.41;99720.25;4125923;28;20600;-56
2022/03/24 00:45:18;;;;;;;5.40;4.95;;;;;;;5.55;56.53;99722.34;4122940;28;20308;-56
2022/03/24 00:47:21;;;;;;;6.68;6.10;;;;;;;5.56;56.68;99727.56;4122222;28;20237;-56
2022/03/24 00:49:23;;;;;;;8.88;4.90;;;;;;;5.59;56.29;99718.19;4107775;28;20234;-57
2022/03/24 00:51:24;;;;;;;5.68;5.25;;;;;;;5.58;56.52;99716.50;4106337;28;20267;-56
2022/03/24 00:53:27;;;;;;;5.07;4.57;;;;;;;5.47;56.32;99719.69;4107805;28;20262;-55
2022/03/24 00:55:30;;;;;;;10.48;4.43;;;;;;;5.35;56.19;99718.50;4104369;28;20246;-55
2022/03/24 00:57:31;;;;;;;6.47;5.22;;;;;;;5.26;56.78;99719.63;4123974;28;20213;-57
2022/03/24 00:59:34;;;;;;;5.70;5.18;;;;;;;5.22;56.57;99715.59;4110567;28;20255;-55
2022/03/24 01:01:38;;;;;;;6.18;5.60;;;;;;;5.20;56.59;99712.22;4122785;28;20257;-55
2022/03/24 01:03:41;;;;;;;6.78;5.03;;;;;;;5.22;57.08;99710.19;4123679;28;20672;-55
2022/03/24 01:05:43;;;;;;;6.13;5.63;;;;;;;5.23;57.06;99720.00;4107167;28;20211;-55
2022/03/24 01:07:46;;;;;;;5.85;5.07;;;;;;;5.24;56.78;99713.53;4090107;28;20207;-57
2022/03/24 01:09:48;;;;;;;6.43;5.82;;;;;;;5.23;57.05;99717.28;4106082;28;21027;-56
2022/03/24 01:11:51;;;;;;;6.57;5.28;;;;;;;5.25;57.29;99712.50;4123814;28;20357;-56
2022/03/24 01:13:53;;;;;;;5.22;4.72;;;;;;;5.22;57.10;99716.44;4109036;28;20550;-57
2022/03/24 01:15:55;;;;;;;4.63;4.22;;;;;;;5.20;57.45;99714.94;4110010;28;20203;-55
2022/03/24 01:17:59;;;;;;;7.97;4.95;;;;;;;5.15;56.91;99714.66;4122595;28;20214;-56
2022/03/24 01:20:03;;;;;;;5.07;4.68;;;;;;;5.11;57.15;99718.78;4110055;28;20215;-56
2022/03/24 01:22:05;;;;;;;6.93;5.72;;;;;;;5.05;57.33;99719.50;4123522;28;20265;-56
2022/03/24 01:24:08;;;;;;;6.43;5.95;;;;;;;5.03;57.16;99716.16;4124556;28;20683;-55
2022/03/24 01:26:09;;;;;;;5.28;4.80;;;;;;;4.96;56.99;99709.78;4123828;28;20237;-56
2022/03/24 01:28:13;;;;;;;6.30;5.80;;;;;;;4.91;57.38;99701.34;4105260;28;20211;-56
2022/03/24 01:30:14;;;;;;;5.43;4.97;;;;;;;4.82;57.58;99707.91;4105787;28;20342;-56
2022/03/24 01:32:17;;;;;;;5.75;5.18;;;;;;;4.73;57.20;99708.97;4127228;28;20226;-57
2022/03/24 01:34:19;;;;;;;6.25;5.60;;;;;;;4.66;58.05;99708.03;4124354;28;20205;-55
2022/03/24 01:36:20;;;;;;;5.38;4.85;;;;;;;4.67;57.72;99704.28;4125526;28;20230;-56
2022/03/24 01:38:23;;;;;;;5.88;5.28;;;;;;;4.64;57.75;99698.41;4107669;28;20237;-56
2022/03/24 01:40:25;;;;;;;4.97;4.57;;;;;;;4.65;57.72;99700.94;4108211;28;20575;-55
2022/03/24 01:42:26;;;;;;;5.57;5.07;;;;;;;4.61;58.05;99694.19;4109184;28;20206;-56
2022/03/24 01:44:28;;;;;;;5.40;5.00;;;;;;;4.59;57.97;99701.66;4103012;28;20238;-55
2022/03/24 01:46:30;;;;;;;7.53;5.25;;;;;;;4.56;57.93;99693.91;4090625;28;20642;-56
2022/03/24 01:48:32;;;;;;;6.55;5.95;;;;;;;4.50;58.75;99694.66;4121785;28;20602;-55
2022/03/24 01:50:33;;;;;;;4.75;4.32;;;;;;;4.63;58.33;99697.56;4120590;28;20214;-56
2022/03/24 01:52:35;;;;;;;5.82;5.28;;;;;;;4.59;58.17;99693.53;4116753;28;20245;-55
2022/03/24 01:54:43;;;;;;;5.85;5.20;;;;;;;4.54;57.79;99692.41;4121077;28;20703;-56
2022/03/24 01:56:48;;;;;;;4.70;4.30;;;;;;;4.50;58.17;99691.94;4108765;28;20564;-56
2022/03/24 01:58:50;;;;;;;6.05;5.30;;;;;;;4.51;57.79;99693.59;4102028;28;20238;-55
2022/03/24 02:00:52;;;;;;;4.60;4.20;;;;;;;4.48;58.09;99695.84;4085364;28;20633;-55
2022/03/24 02:02:55;;;;;;;5.80;5.10;;;;;;;4.48;58.47;99688.53;4117721;28;20261;-55
2022/03/24 02:04:57;;;;;;;5.00;4.60;;;;;;;4.51;58.62;99693.59;4101340;28;20338;-56
2022/03/24 02:06:58;;;;;;;6.03;5.43;;;;;;;4.51;58.45;99685.47;4119498;28;20288;-56
2022/03/24 02:09:00;;;;;;;5.20;4.75;;;;;;;4.53;58.71;99688.84;4117658;28;20302;-56
2022/03/24 02:11:02;;;;;;;5.15;4.70;;;;;;;4.50;58.43;99691.94;4104722;28;20254;-57
2022/03/24 02:13:04;;;;;;;5.70;5.15;;;;;;;4.44;58.86;99687.25;4103194;28;20662;-56
2022/03/24 02:15:07;;;;;;;5.22;4.72;;;;;;;4.40;58.71;99691.31;4101833;28;20672;-56
2022/03/24 02:17:09;;;;;;;5.40;4.93;;;;;;;4.41;58.55;99686.75;4120636;28;20222;-55
2022/03/24 02:19:21;;;;;;;6.00;5.25;;;;;;;4.41;59.13;99689.47;4117362;28;20315;-56
2022/03/24 02:21:23;;;;;;;4.15;3.85;;;;;;;4.44;59.05;99689.94;4101601;28;20233;-56
2022/03/24 02:23:26;;;;;;;4.97;4.57;;;;;;;4.45;58.58;99699.75;4119116;28;20213;-55
2022/03/24 02:25:32;;;;;;;5.68;4.93;;;;;;;4.45;58.96;99691.63;4125579;28;20218;-55
2022/03/24 02:27:33;;;;;;;4.78;4.40;;;;;;;4.39;58.86;99695.06;4105838;28;20824;-55
2022/03/24 02:29:35;;;;;;;5.07;4.60;;;;;;;4.34;58.68;99691.22;4122205;28;21346;-56
2022/03/24 02:31:39;;;;;;;5.50;4.28;;;;;;;4.29;58.87;99699.91;4122271;28;20258;-55
2022/03/24 02:33:41;;;;;;;5.97;4.78;;;;;;;4.24;58.60;99691.47;4105933;28;20218;-55
2022/03/24 02:35:44;;;;;;;4.75;4.40;;;;;;;4.19;59.02;99688.44;4086055;28;20755;-55
2022/03/24 02:37:46;;;;;;;5.40;4.93;;;;;;;4.10;58.77;99694.97;4122078;28;20238;-56
2022/03/24 02:39:50;;;;;;;4.60;4.07;;;;;;;3.96;59.27;99690.34;4106879;28;20249;-55
2022/03/24 02:41:53;;;;;;;5.03;4.47;;;;;;;3.92;59.91;99697.13;4118117;28;20230;-56
2022/03/24 02:43:55;;;;;;;5.18;4.78;;;;;;;3.89;59.82;99683.94;4102911;28;20202;-55
2022/03/24 02:45:57;;;;;;;4.82;4.45;;;;;;;3.86;59.45;99692.41;4121328;28;20305;-55
2022/03/24 02:47:59;;;;;;;6.80;5.38;;;;;;;3.84;60.06;99689.06;4109112;28;20281;-55
2022/03/24 02:50:01;;;;;;;6.00;5.05;;;;;;;3.81;59.28;99692.09;4107987;28;20214;-55
2022/03/24 02:52:04;;;;;;;4.45;4.07;;;;;;;3.83;59.23;99687.38;4120081;28;20341;-55
2022/03/24 02:54:09;;;;;;;5.95;5.32;;;;;;;3.81;59.37;99693.97;4123295;28;20301;-56
2022/03/24 02:56:10;;;;;;;5.43;4.88;;;;;;;3.83;59.80;99697.34;4105649;28;20206;-55
2022/03/24 02:58:12;;;;;;;5.07;4.47;;;;;;;3.81;59.70;99692.09;4123413;28;20205;-55
2022/03/24 03:00:15;;;;;;;6.13;5.53;;;;;;;3.82;59.57;99695.66;4105524;28;20238;-56
2022/03/24 03:02:18;;;;;;;5.35;4.60;;;;;;;3.82;59.62;99695.66;4107074;28;20230;-55
2022/03/24 03:04:20;;;;;;;5.80;5.30;;;;;;;3.79;59.58;99691.44;4120511;28;20343;-56
2022/03/24 03:06:22;;;;;;;4.88;4.47;;;;;;;3.71;60.09;99696.06;4121438;28;20210;-55
2022/03/24 03:08:24;;;;;;;3.72;3.42;;;;;;;3.69;59.84;99698.97;4103171;28;20235;-56
2022/03/24 03:10:25;;;;;;;7.53;4.82;;;;;;;3.60;60.10;99694.59;4101605;28;20318;-56
2022/03/24 03:12:27;;;;;;;3.40;3.10;;;;;;;3.55;60.07;99694.28;4105069;28;20202;-56
2022/03/24 03:14:29;;;;;;;5.07;3.92;;;;;;;3.53;60.30;99693.63;4123209;28;20206;-56
2022/03/24 03:16:31;;;;;;;5.20;4.45;;;;;;;3.47;60.00;99691.63;4120913;28;20551;-56
2022/03/24 03:18:33;;;;;;;6.15;5.60;;;;;;;3.46;60.33;99695.34;4092167;28;20217;-56
2022/03/24 03:20:36;;;;;;;4.43;4.13;;;;;;;3.40;60.26;99696.03;4125399;28;20233;-57
2022/03/24 03:22:38;;;;;;;5.28;4.93;;;;;;;3.43;60.78;99690.28;4121412;28;20572;-56
2022/03/24 03:24:40;;;;;;;5.07;4.57;;;;;;;3.42;60.50;99699.44;4105969;28;20289;-55
2022/03/24 03:26:41;;;;;;;4.97;4.57;;;;;;;3.44;61.01;99702.81;4101208;28;20215;-55
2022/03/24 03:28:44;;;;;;;4.35;4.03;;;;;;;3.45;60.97;99699.06;4120104;28;20476;-55
2022/03/24 03:30:46;;;;;;;5.82;4.80;;;;;;;3.44;60.79;99699.25;4109038;28;20269;-55
2022/03/24 03:32:47;;;;;;;5.95;5.35;;;;;;;3.41;60.61;99697.72;4104404;28;20238;-55
2022/03/24 03:34:49;;;;;;;5.95;5.45;;;;;;;3.40;60.79;99706.88;4121485;28;20228;-56
2022/03/24 03:36:55;;;;;;;6.25;5.85;;;;;;;3.37;60.74;99706.38;4106287;28;20584;-56
2022/03/24 03:38:57;;;;;;;4.18;3.88;;;;;;;3.32;60.90;99701.50;4109108;28;20207;-56
2022/03/24 03:41:00;;;;;;;6.35;5.70;;;;;;;3.30;61.29;99711.66;4120039;28;20704;-56
2022/03/24 03:43:02;;;;;;;5.90;5.32;;;;;;;3.26;60.83;99699.47;4122019;28;20256;-56
2022/03/24 03:45:04;;;;;;;5.15;4.75;;;;;;;3.23;60.95;99707.97;4107251;28;20787;-55
2022/03/24 03:47:07;;;;;;;5.38;4.88;;;;;;;3.25;61.36;99707.75;4124196;28;20222;-55
2022/03/24 03:49:10;;;;;;;5.85;4.93;;;;;;;3.26;61.33;99715.72;4107955;28;20210;-56
2022/03/24 03:51:12;;;;;;;5.60;5.20;;;;;;;3.28;61.05;99713.66;4104862;28;20237;-56
2022/03/24 03:53:14;;;;;;;4.88;4.47;;;;;;;3.26;61.12;99704.91;4106176;28;20830;-56
2022/03/24 03:55:17;;;;;;;4.45;4.05;;;;;;;3.23;60.91;99709.81;4121618;28;20779;-56
2022/03/24 03:57:19;;;;;;;4.55;4.13;;;;;;;3.21;61.52;99703.75;4091863;28;20199;-57
2022/03/24 03:59:20;;;;;;;7.38;4.57;;;;;;;3.19;61.12;99705.75;4120023;28;20206;-55
2022/03/24 04:01:23;;;;;;;6.40;4.75;;;;;;;3.19;61.58;99709.31;4105469;28;20768;-56
2022/03/24 04:03:30;;;;;;;4.90;4.50;;;;;;;3.21;60.86;99706.44;4109617;28;20682;-56
2022/03/24 04:05:32;;;;;;;6.63;6.07;;;;;;;3.19;61.72;99706.63;4127006;28;20248;-55
2022/03/24 04:07:34;;;;;;;5.63;5.13;;;;;;;3.08;61.47;99704.28;4109753;28;20237;-56
2022/03/24 04:09:35;;;;;;;5.68;5.28;;;;;;;2.97;61.52;99701.97;4126104;28;20261;-55
2022/03/24 04:11:37;;;;;;;4.97;4.47;;;;;;;2.94;62.03;99707.69;4109117;28;20265;-55
2022/03/24 04:13:42;;;;;;;5.05;4.57;;;;;;;2.90;62.21;99703.66;4121900;28;20234;-55
2022/03/24 04:15:45;;;;;;;5.13;4.75;;;;;;;2.85;62.40;99703.34;4118958;28;20253;-56
2022/03/24 04:17:46;;;;;;;6.15;4.50;;;;;;;2.82;62.22;99700.13;4106915;28;21913;-56
2022/03/24 04:19:48;;;;;;;5.72;5.18;;;;;;;2.81;62.42;99704.69;4089337;28;20345;-55
2022/03/24 04:21:50;;;;;;;4.65;4.22;;;;;;;2.79;62.34;99701.31;4106211;28;20271;-56
2022/03/24 04:23:52;;;;;;;5.38;4.88;;;;;;;2.86;62.43;99704.19;4123440;28;20212;-56
2022/03/24 04:25:53;;;;;;;5.18;4.60;;;;;;;2.89;61.84;99706.53;4104552;28;20231;-57
2022/03/24 04:27:56;;;;;;;6.15;5.65;;;;;;;2.92;62.07;99700.78;4101251;28;20325;-56
2022/03/24 04:29:57;;;;;;;4.75;4.35;;;;;;;2.90;62.21;99702.81;4103500;28;20238;-56
2022/03/24 04:31:59;;;;;;;6.50;6.00;;;;;;;2.87;61.84;99703.16;4115641;28;20249;-56
2022/03/24 04:34:01;;;;;;;4.47;4.07;;;;;;;2.85;61.83;99700.63;4105278;28;20223;-56
2022/03/24 04:36:07;;;;;;;5.43;5.03;;;;;;;2.84;62.00;99704.34;4121367;28;20202;-56
2022/03/24 04:38:09;;;;;;;5.03;4.63;;;;;;;2.81;62.32;99718.19;4117416;28;22032;-57
2022/03/24 04:40:12;;;;;;;5.78;5.28;;;;;;;2.81;62.47;99714.66;4104567;28;22075;-56
2022/03/24 04:42:14;;;;;;;5.28;4.78;;;;;;;2.82;61.88;99717.19;4119033;28;20237;-56
2022/03/24 04:44:15;;;;;;;4.78;4.38;;;;;;;2.79;61.85;99706.72;4103266;28;20213;-56
2022/03/24 04:46:18;;;;;;;5.20;4.25;;;;;;;2.78;62.29;99720.41;4118661;28;20203;-56
2022/03/24 04:48:21;;;;;;;5.38;4.97;;;;;;;2.72;62.41;99716.53;4101516;28;20230;-56
2022/03/24 04:50:22;;;;;;;5.90;4.88;;;;;;;2.71;62.30;99722.97;4120893;28;20246;-57
2022/03/24 04:52:24;;;;;;;5.05;4.65;;;;;;;2.61;62.67;99718.75;4122216;28;20209;-57
2022/03/24 04:54:26;;;;;;;6.13;5.68;;;;;;;2.55;62.67;99720.25;4108911;28;20207;-57
2022/03/24 04:56:27;;;;;;;6.18;5.72;;;;;;;2.47;63.23;99717.56;4121794;28;20293;-57
2022/03/24 04:58:30;;;;;;;6.45;4.95;;;;;;;2.41;63.24;99718.22;4105213;28;20207;-57
2022/03/24 05:00:31;;;;;;;4.82;4.43;;;;;;;2.43;63.00;99724.34;4095032;28;20223;-57
2022/03/24 05:02:33;;;;;;;5.18;4.78;;;;;;;2.46;63.04;99721.28;4123155;28;20214;-57
2022/03/24 05:04:35;;;;;;;4.57;4.18;;;;;;;2.43;62.80;99728.88;4121003;28;20785;-57
2022/03/24 05:06:37;;;;;;;5.65;4.40;;;;;;;2.44;62.98;99730.56;4122847;28;20745;-56
2022/03/24 05:08:39;;;;;;;6.38;5.88;;;;;;;2.45;62.68;99730.41;4126973;28;20300;-56
2022/03/24 05:10:40;;;;;;;4.53;4.15;;;;;;;2.44;63.06;99731.41;4109677;28;20285;-57
2022/03/24 05:12:42;;;;;;;5.97;5.47;;;;;;;2.46;62.80;99723.97;4124627;28;20225;-57
2022/03/24 05:14:44;;;;;;;5.40;4.88;;;;;;;2.35;63.23;99718.91;4127971;28;20205;-56
2022/03/24 05:16:46;;;;;;;7.53;4.32;;;;;;;2.31;63.29;99720.28;4122945;28;20623;-56
2022/03/24 05:18:48;;;;;;;5.45;5.05;;;;;;;2.30;63.32;99726.69;4110127;28;20293;-56
2022/03/24 05:20:50;;;;;;;5.05;4.55;;;;;;;2.27;63.26;99721.63;4125338;28;20313;-56
2022/03/24 05:22:52;;;;;;;5.38;4.93;;;;;;;2.31;63.62;99727.53;4112229;28;20302;-56
2022/03/24 05:24:54;;;;;;;4.47;4.07;;;;;;;2.26;63.48;99727.16;4106383;28;21931;-56
2022/03/24 05:26:56;;;;;;;5.68;4.97;;;;;;;2.24;63.42;99719.25;4121183;28;20337;-56
2022/03/24 05:28:57;;;;;;;4.93;4.50;;;;;;;2.27;63.47;99716.22;4108767;28;20881;-56
2022/03/24 05:30:59;;;;;;;5.72;5.22;;;;;;;2.30;63.76;99721.28;4107703;28;20313;-56
2022/03/24 05:33:01;;;;;;;4.63;4.22;;;;;;;2.27;63.40;99727.00;4123501;28;21710;-55
2022/03/24 05:35:03;;;;;;;5.05;4.55;;;;;;;2.32;63.62;99732.75;4108924;28;20821;-56
2022/03/24 05:37:05;;;;;;;4.47;4.05;;;;;;;2.29;63.54;99730.41;4107258;28;20211;-56
2022/03/24 05:39:06;;;;;;;8.43;6.68;;;;;;;2.30;63.32;99729.41;4109897;28;20239;-55
2022/03/24 05:41:10;;;;;;;5.80;5.28;;;;;;;2.31;63.51;99728.38;4107758;28;20265;-55
2022/03/24 05:43:12;;;;;;;6.07;5.47;;;;;;;2.32;63.68;99727.38;4108476;28;20732;-55
2022/03/24 05:45:14;;;;;;;8.27;6.63;;;;;;;2.36;63.39;99730.56;4108360;28;20214;-57
2022/03/24 05:47:16;;;;;;;8.02;7.22;;;;;;;2.39;63.40;99731.06;4108918;28;20215;-57
2022/03/24 05:49:19;;;;;;;9.13;7.43;;;;;;;2.40;63.34;99731.94;4108023;28;20238;-56
2022/03/24 05:51:21;;;;;;;6.70;6.10;;;;;;;2.39;63.45;99733.78;4122594;28;20312;-57
2022/03/24 05:53:22;;;;;;;6.20;5.72;;;;;;;2.39;63.50;99736.47;4105741;28;20214;-57
2022/03/24 05:55:24;;;;;;;7.22;6.35;;;;;;;2.37;63.84;99727.72;4108287;28;20206;-56
2022/03/24 05:57:26;;;;;;;6.65;6.05;;;;;;;2.35;64.00;99728.88;4103663;28;20674;-56
2022/03/24 05:59:27;;;;;;;7.53;6.82;;;;;;;2.35;63.77;99739.69;4119113;28;20216;-57
2022/03/24 06:01:29;;;;;;;6.10;5.15;;;;;;;2.33;63.96;99731.75;4120364;28;20233;-57
2022/03/24 06:03:35;;;;;;;6.55;6.07;;;;;;;2.33;63.94;99736.31;4106846;28;20665;-57
2022/03/24 06:05:40;;;;;;;6.22;5.68;;;;;;;2.37;63.81;99733.09;4117348;28;20206;-57
2022/03/24 06:07:42;;;;;;;6.63;6.10;;;;;;;2.41;63.80;99745.25;4122191;28;20651;-56
2022/03/24 06:09:48;;;;;;;5.38;4.93;;;;;;;2.44;64.43;99734.13;4111500;28;20211;-56
2022/03/24 06:11:52;;;;;;;7.15;5.97;;;;;;;2.48;64.31;99740.84;4123976;28;20233;-55
2022/03/24 06:13:53;;;;;;;6.45;5.95;;;;;;;2.52;64.36;99747.63;4123369;28;20292;-57
2022/03/24 06:15:55;;;;;;;6.35;5.82;;;;;;;2.60;64.24;99738.69;4109280;28;20731;-56
2022/03/24 06:17:57;;;;;;;5.32;4.82;;;;;;;2.72;63.74;99740.84;4120569;28;20584;-57
2022/03/24 06:20:01;;;;;;;7.13;6.63;;;;;;;2.89;64.50;99744.38;4121906;28;20202;-57
2022/03/24 06:22:04;;;;;;;6.68;6.00;;;;;;;3.14;64.27;99737.91;4109932;28;20230;-56
2022/03/24 06:24:07;;;;;;;5.75;4.28;;;;;;;3.33;64.41;99738.34;4107275;28;20234;-56
2022/03/24 06:26:09;;;;;;;7.47;6.78;;;;;;;3.29;63.54;99742.44;4100596;28;20515;-60
2022/03/24 06:28:11;;;;;;;5.20;4.75;;;;;;;3.52;63.05;99737.94;4105991;28;20227;-55
2022/03/24 06:30:14;;;;;;;6.50;5.95;;;;;;;3.65;63.78;99732.78;4106456;28;20230;-56
2022/03/24 06:32:16;;;;;;;5.50;5.00;;;;;;;3.79;62.94;99734.75;4088607;28;20238;-56
2022/03/24 06:34:17;;;;;;;6.07;5.65;;;;;;;4.43;63.23;99737.03;4106499;28;20265;-54
2022/03/24 06:36:19;;;;;;;6.20;5.60;;;;;;;4.75;62.16;99730.50;4108529;28;20688;-53
2022/03/24 06:38:21;;;;;;;7.70;7.05;;;;;;;4.69;61.98;99732.09;4126539;28;20392;-53
2022/03/24 06:40:23;;;;;;;10.02;7.32;;;;;;;5.63;61.79;99736.63;4123381;28;20427;-54
2022/03/24 06:42:25;;;;;;;6.97;6.32;;;;;;;6.44;59.91;99730.94;4102354;28;20783;-55
2022/03/24 06:44:26;;;;;;;7.18;6.32;;;;;;;6.31;57.83;99725.34;4105136;28;20265;-54
2022/03/24 06:46:28;;;;;;;6.72;6.05;;;;;;;5.87;57.87;99727.34;4126407;28;20326;-55
2022/03/24 06:48:30;;;;;;;5.30;4.78;;;;;;;5.67;58.95;99720.78;4108189;28;20219;-55
2022/03/24 06:50:33;;;;;;;5.65;5.25;;;;;;;5.72;58.88;99723.78;4111840;28;20225;-53
2022/03/24 06:52:34;;;;;;;5.65;4.93;;;;;;;5.88;58.88;99729.06;4121666;28;20241;-54
2022/03/24 06:54:36;;;;;;;5.90;5.45;;;;;;;6.02;59.55;99733.59;4120815;28;20211;-52
2022/03/24 06:56:38;;;;;;;7.82;7.03;;;;;;;6.24;58.68;99729.88;4107187;28;20330;-56
2022/03/24 06:58:43;;;;;;;5.53;5.05;;;;;;;6.58;58.88;99736.31;4125369;28;20210;-52
2022/03/24 07:00:44;;;;;;;7.35;5.97;;;;;;;6.62;57.84;99739.47;4124081;28;20241;-53
2022/03/24 07:02:46;;;;;;;6.35;5.88;;;;;;;6.92;57.76;99736.41;4111276;28;20218;-54
2022/03/24 07:04:52;;;;;;;7.45;6.85;;;;;;;7.26;56.46;99738.31;4108767;28;20665;-55
2022/03/24 07:06:54;;;;;;;6.38;5.03;;;;;;;8.78;53.92;99737.69;4125057;28;20205;-52
2022/03/24 07:08:56;;;;;;;7.38;6.68;;;;;;;9.35;52.19;99735.16;4110462;28;20253;-52
2022/03/24 07:10:57;;;;;;;6.45;5.95;;;;;;;9.78;52.05;99733.56;4108308;28;20230;-53
2022/03/24 07:12:59;;;;;;;7.43;5.72;;;;;;;9.82;51.40;99734.81;4108786;28;20238;-53
2022/03/24 07:15:03;;;;;;;6.78;6.28;;;;;;;10.04;50.59;99737.09;4104675;28;20206;-52
2022/03/24 07:17:04;;;;;;;6.45;5.85;;;;;;;10.33;49.93;99739.25;4088217;28;20286;-53
2022/03/24 07:19:08;;;;;;;7.20;6.65;;;;;;;10.93;48.88;99734.00;4120870;28;20209;-52
2022/03/24 07:21:10;;;;;;;6.30;5.43;;;;;;;11.00;48.15;99740.28;4107504;28;22201;-52
2022/03/24 07:23:12;;;;;;;5.68;5.25;;;;;;;11.96;46.45;99734.06;4112752;28;20584;-53
2022/03/24 07:25:15;;;;;;;6.03;5.53;;;;;;;12.35;45.44;99736.31;4111483;28;20661;-51
2022/03/24 07:27:16;;;;;;;6.25;5.68;;;;;;;12.24;45.33;99734.31;4108914;28;20211;-50
2022/03/24 07:29:18;;;;;;;6.15;5.55;;;;;;;12.56;45.28;99737.72;4104572;28;20234;-51
2022/03/24 07:31:20;;;;;;;8.13;5.88;;;;;;;12.63;44.75;99733.78;4110374;28;20704;-52
2022/03/24 07:33:22;;;;;;;5.35;4.93;;;;;;;12.59;44.33;99731.75;4124093;28;20225;-50
2022/03/24 07:35:26;;;;;;;5.25;4.75;;;;;;;11.38;47.35;99738.22;4127875;28;20217;-51
2022/03/24 07:37:28;;;;;;;6.00;5.38;;;;;;;11.65;46.83;99739.69;4128501;28;20201;-52
2022/03/24 07:39:31;;;;;;;6.05;5.45;;;;;;;12.37;45.25;99739.66;4109094;28;20732;-54
2022/03/24 07:41:34;;;;;;;4.97;4.57;;;;;;;12.58;44.10;99741.88;4126614;28;20233;-52
2022/03/24 07:43:36;;;;;;;5.28;4.88;;;;;;;12.73;44.92;99745.06;4110930;28;20203;-54
2022/03/24 07:45:38;;;;;;;6.63;6.03;;;;;;;13.15;44.05;99743.16;4116042;28;20769;-51
2022/03/24 07:48:03;;;;;;;7.05;5.95;;;;;;;12.93;44.35;99742.00;4111134;28;20664;-53
2022/03/24 07:50:06;;;;;;;6.03;5.50;;;;;;;13.63;43.53;99736.38;4111337;28;20213;-53
2022/03/24 07:52:13;;;;;;;5.82;5.20;;;;;;;13.93;43.00;99737.06;4126981;28;20356;-51
2022/03/24 07:54:15;;;;;;;6.50;5.90;;;;;;;14.19;42.71;99736.56;4111074;28;20576;-52
2022/03/24 07:56:21;;;;;;;5.88;5.38;;;;;;;14.60;41.89;99738.22;4111494;28;20236;-51
2022/03/24 07:58:23;;;;;;;11.77;6.68;;;;;;;13.30;43.85;99741.63;4111335;28;20205;-54
2022/03/24 08:00:25;;;;;;;7.22;6.43;;;;;;;13.79;43.74;99737.56;4113224;28;20234;-53
2022/03/24 08:02:27;;;;;;;5.57;5.03;;;;;;;14.04;42.33;99744.44;4111576;28;20214;-52
2022/03/24 08:04:32;;;;;;;5.28;4.78;;;;;;;14.81;42.61;99738.34;4112950;28;21951;-52
2022/03/24 08:06:35;;;;;;;5.10;4.63;;;;;;;14.77;42.43;99744.63;4112908;28;20297;-51
2022/03/24 08:08:37;;;;;;;6.70;6.10;;;;;;;14.76;42.18;99741.00;4126739;28;20234;-50
2022/03/24 08:10:40;;;;;;;5.07;4.55;;;;;;;15.31;41.89;99757.72;4128691;28;20620;-51
2022/03/24 08:12:41;;;;;;;5.35;4.82;;;;;;;15.93;41.17;99745.47;4093555;28;20262;-51
2022/03/24 08:14:44;;;;;;;7.38;6.63;;;;;;;15.19;41.64;99751.44;4113265;28;20751;-51
2022/03/24 08:16:46;;;;;;;5.80;5.32;;;;;;;13.84;45.14;99743.19;4108974;28;20603;-51
2022/03/24 08:18:48;;;;;;;5.53;5.05;;;;;;;13.77;44.89;99742.47;4110673;28;20661;-51
2022/03/24 08:20:51;;;;;;;5.30;4.80;;;;;;;15.07;43.06;99750.66;4125152;28;20648;-51
2022/03/24 08:22:53;;;;;;;6.10;5.50;;;;;;;15.76;41.10;99745.50;4123884;28;20215;-51
2022/03/24 08:24:55;;;;;;;6.22;5.63;;;;;;;14.92;43.11;99748.50;4107666;28;20277;-50
2022/03/24 08:26:59;;;;;;;5.78;5.28;;;;;;;15.21;42.47;99744.59;4122185;28;20226;-52
2022/03/24 08:29:01;;;;;;;6.25;5.60;;;;;;;15.94;41.23;99748.00;4125382;28;20696;-50
2022/03/24 08:31:03;;;;;;;5.70;5.05;;;;;;;14.83;42.08;99746.38;4123343;28;20316;-49
2022/03/24 08:33:05;;;;;;;6.57;5.90;;;;;;;14.14;43.57;99744.69;4110307;28;20223;-50
2022/03/24 08:35:08;;;;;;;7.70;7.00;;;;;;;13.26;44.74;99745.94;4105012;28;20919;-49
2022/03/24 08:37:09;;;;;;;6.40;5.68;;;;;;;13.70;44.80;99747.25;4112221;28;20207;-50
2022/03/24 08:39:11;;;;;;;6.45;5.70;;;;;;;15.85;41.45;99749.53;4108900;28;20241;-49
2022/03/24 08:41:13;;;;;;;6.13;5.55;;;;;;;15.64;42.06;99761.31;4108865;28;20230;-54
2022/03/24 08:43:15;;;;;;;8.85;7.18;;;;;;;14.81;42.62;99752.13;4110274;28;20214;-52
2022/03/24 08:45:20;;;;;;;7.10;6.32;;;;;;;14.78;42.31;99746.28;4126170;28;20225;-51
2022/03/24 08:47:22;;;;;;;9.90;7.07;;;;;;;15.77;41.11;99752.69;4129013;28;20634;-52
2022/03/24 08:49:24;;;;;;;6.85;6.25;;;;;;;14.87;41.94;99750.31;4128605;28;20225;-50
2022/03/24 08:51:27;;;;;;;6.15;5.15;;;;;;;14.66;41.95;99743.59;4110540;28;20250;-52
2022/03/24 08:53:29;;;;;;;8.18;6.68;;;;;;;14.39;42.94;99739.75;4126751;28;20238;-50
2022/03/24 08:55:31;;;;;;;7.78;6.97;;;;;;;14.44;42.03;99744.50;4126916;28;20222;-51
2022/03/24 08:57:34;;;;;;;6.82;6.22;;;;;;;15.00;42.09;99741.72;4125942;28;20210;-50
2022/03/24 08:59:36;;;;;;;10.27;7.55;;;;;;;15.00;42.04;99750.84;4124797;28;20202;-50
2022/03/24 09:01:38;;;;;;;8.50;6.85;;;;;;;16.87;39.77;99747.78;4107594;28;20354;-50
2022/03/24 09:03:41;;;;;;;7.65;6.70;;;;;;;17.80;38.07;99748.94;4125357;28;20213;-53
2022/03/24 09:05:43;;;;;;;7.68;6.75;;;;;;;18.52;37.47;99752.69;4126693;28;20726;-50
2022/03/24 09:07:46;;;;;;;7.57;6.88;;;;;;;17.27;37.93;99749.88;4126594;28;20210;-51
2022/03/24 09:09:48;;;;;;;8.15;6.25;;;;;;;17.04;39.29;99750.19;4125245;28;20677;-53
2022/03/24 09:11:50;;;;;;;7.50;6.70;;;;;;;16.24;39.00;99748.38;4111684;28;20231;-53
2022/03/24 09:13:52;;;;;;;8.63;7.55;;;;;;;17.32;38.60;99746.31;4126111;28;20763;-52
2022/03/24 09:15:53;;;;;;;9.18;8.35;;;;;;;16.57;37.75;99751.06;4110241;28;20219;-50
2022/03/24 09:17:56;;;;;;;9.23;8.38;;;;;;;17.43;36.76;99748.94;4124778;28;20222;-50
2022/03/24 09:19:58;;;;;;;12.50;7.35;;;;;;;17.49;37.39;99747.03;4126555;28;20722;-50
2022/03/24 09:22:03;;;;;;;9.68;7.53;;;;;;;16.48;37.85;99744.31;4109656;28;20282;-50
2022/03/24 09:24:08;;;;;;;22.13;6.72;;;;;;;16.74;38.25;99737.16;4125761;28;20663;-56
2022/03/24 09:26:12;;;;;;;8.18;7.47;;;;;;;17.42;37.27;99740.88;4109641;28;20211;-51
2022/03/24 09:28:31;;;;;;;8.23;7.38;;;;;;;18.23;37.26;99745.84;4123565;28;21161;-51
2022/03/24 09:30:34;;;;;;;10.10;7.28;;;;;;;18.35;36.83;99746.50;4109425;28;20664;-53
2022/03/24 09:32:36;;;;;;;10.18;8.15;;;;;;;18.68;36.53;99751.63;4124701;28;20222;-51
2022/03/24 09:34:38;;;;;;;7.95;7.15;;;;;;;19.36;35.67;99749.31;4124976;28;20214;-50
2022/03/24 09:36:40;;;;;;;8.23;7.43;;;;;;;19.48;34.92;99746.25;4124097;28;20305;-50
2022/03/24 09:38:41;;;;;;;7.20;6.50;;;;;;;20.00;34.84;99738.44;4125623;28;20206;-50
2022/03/24 09:40:45;;;;;;;9.25;8.15;;;;;;;20.10;34.65;99744.00;4110740;28;20214;-52